Time;durP1;ratioP1;P1;durP2;ratioP2;P2;SDS_P1;SDS_P2;PMS_P1;PMS_P2;Temp;Humidity;BMP_temperature;BMP_pressure;BME280_temperature;BME280_humidity;BME280_pressure;Samples;Min_cycle;Max_cycle;Signal;HPM_P1;HPM_P2
2022/07/17 00:03:21;;;;;;;2.40;1.40;;;23.10;52.70;;;;;;220175;1268;25362;-61
2022/07/17 00:08:25;;;;;;;2.60;1.30;;;23.10;53.00;;;;;;220342;1267;25488;-60
2022/07/17 00:13:29;;;;;;;1.70;1.20;;;23.00;52.60;;;;;;220424;1267;22551;-61
2022/07/17 00:18:33;;;;;;;2.10;1.30;;;23.10;52.70;;;;;;220009;1270;22591;-61
2022/07/17 00:23:36;;;;;;;2.30;1.20;;;23.10;52.60;;;;;;220442;1267;25362;-59
2022/07/17 00:28:41;;;;;;;3.40;1.60;;;23.00;53.10;;;;;;220227;1267;22531;-61
2022/07/17 00:33:45;;;;;;;2.30;1.30;;;23.00;52.50;;;;;;220579;1270;22597;-63
2022/07/17 00:38:48;;;;;;;4.10;1.20;;;23.00;52.50;;;;;;220599;1267;22540;-61
2022/07/17 00:43:52;;;;;;;2.10;1.20;;;23.00;52.50;;;;;;220472;1269;22719;-60
2022/07/17 00:48:56;;;;;;;2.10;1.10;;;23.00;52.50;;;;;;220705;1267;22736;-59
2022/07/17 00:54:00;;;;;;;2.50;1.50;;;22.90;52.80;;;;;;220589;1267;24149;-62
2022/07/17 00:59:13;;;;;;;2.10;1.10;;;23.00;52.80;;;;;;220564;1268;24300;-61
2022/07/17 01:04:17;;;;;;;1.90;1.20;;;23.00;52.40;;;;;;220633;1269;23935;-61
2022/07/17 01:09:22;;;;;;;2.30;1.20;;;22.90;51.90;;;;;;220558;1267;22561;-62
2022/07/17 01:14:27;;;;;;;2.50;1.30;;;22.90;52.40;;;;;;220460;1267;25608;-60
2022/07/17 01:19:31;;;;;;;2.60;1.30;;;22.90;52.30;;;;;;220201;1268;24219;-61
2022/07/17 01:24:39;;;;;;;2.20;1.40;;;22.90;52.40;;;;;;220588;1267;22535;-62
2022/07/17 01:29:43;;;;;;;2.10;1.20;;;22.90;52.30;;;;;;220706;1267;22525;-52
2022/07/17 01:34:47;;;;;;;2.40;1.40;;;22.90;52.40;;;;;;220101;1267;552113;-50
2022/07/17 01:39:53;;;;;;;2.20;1.40;;;22.90;52.40;;;;;;220799;1267;22603;-53
2022/07/17 01:44:57;;;;;;;2.40;1.40;;;22.80;52.30;;;;;;220547;1267;24229;-48
2022/07/17 01:50:03;;;;;;;3.20;1.30;;;22.80;52.30;;;;;;219942;1270;24227;-49
2022/07/17 01:55:10;;;;;;;1.90;1.30;;;22.80;52.20;;;;;;220106;1270;22731;-51
2022/07/17 02:00:17;;;;;;;2.60;1.40;;;22.80;52.20;;;;;;220483;1267;24221;-48
2022/07/17 02:05:20;;;;;;;2.50;1.10;;;22.80;52.30;;;;;;220526;1267;22554;-53
2022/07/17 02:10:26;;;;;;;2.80;1.20;;;22.70;52.20;;;;;;220399;1267;25235;-51
2022/07/17 02:15:30;;;;;;;2.20;1.10;;;22.80;52.20;;;;;;220317;1267;23944;-48
2022/07/17 02:20:34;;;;;;;2.40;1.20;;;22.70;52.40;;;;;;220335;1270;22528;-48
2022/07/17 02:25:38;;;;;;;2.20;1.30;;;22.70;52.20;;;;;;220696;1267;22557;-52
2022/07/17 02:30:42;;;;;;;2.50;1.10;;;22.70;52.10;;;;;;221047;1266;24306;-52
2022/07/17 02:35:45;;;;;;;2.50;1.30;;;22.70;52.20;;;;;;220373;1270;23911;-49
2022/07/17 02:40:50;;;;;;;1.90;1.10;;;22.70;52.40;;;;;;220476;1267;24276;-50
2022/07/17 02:45:54;;;;;;;1.90;1.20;;;22.70;52.10;;;;;;220879;1267;24883;-50
2022/07/17 02:50:58;;;;;;;1.50;1.00;;;22.70;52.10;;;;;;220693;1267;23944;-49
2022/07/17 02:56:01;;;;;;;3.00;1.30;;;22.60;52.40;;;;;;220021;1270;22541;-49
2022/07/17 03:01:06;;;;;;;1.90;1.10;;;22.60;52.10;;;;;;220471;1267;24461;-47
2022/07/17 03:06:09;;;;;;;2.30;1.20;;;22.60;52.00;;;;;;220698;1267;24282;-49
2022/07/17 03:11:13;;;;;;;2.40;1.40;;;22.60;52.00;;;;;;220615;1267;25230;-49
2022/07/17 03:16:17;;;;;;;2.90;1.40;;;22.60;51.90;;;;;;220261;1270;22819;-51
2022/07/17 03:21:21;;;;;;;3.50;1.30;;;22.60;52.00;;;;;;220586;1267;22602;-49
2022/07/17 03:26:24;;;;;;;2.60;1.40;;;22.50;52.00;;;;;;219984;1271;22541;-48
2022/07/17 03:31:28;;;;;;;2.00;1.30;;;22.50;51.90;;;;;;220451;1267;22522;-49
2022/07/17 03:36:33;;;;;;;2.40;1.50;;;22.50;51.90;;;;;;220314;1267;25407;-50
2022/07/17 03:41:37;;;;;;;2.00;1.20;;;22.50;51.40;;;;;;220107;1270;22589;-52
2022/07/17 03:46:40;;;;;;;2.20;1.20;;;22.50;51.90;;;;;;220573;1269;22727;-48
2022/07/17 03:51:44;;;;;;;1.90;1.10;;;22.50;51.80;;;;;;220912;1267;24309;-49
2022/07/17 03:56:48;;;;;;;1.70;1.00;;;22.50;51.80;;;;;;220725;1267;22623;-50
2022/07/17 04:01:52;;;;;;;1.70;1.20;;;22.50;51.80;;;;;;220701;1267;22531;-50
2022/07/17 04:06:56;;;;;;;2.30;1.30;;;22.50;51.70;;;;;;220255;1270;22598;-50
2022/07/17 04:11:59;;;;;;;2.60;1.40;;;22.50;51.70;;;;;;220272;1270;25292;-48
2022/07/17 04:17:03;;;;;;;2.20;1.40;;;22.50;51.70;;;;;;220152;1270;22595;-50
2022/07/17 04:22:07;;;;;;;2.30;1.10;;;22.50;51.70;;;;;;220128;1270;22527;-49
2022/07/17 04:27:11;;;;;;;2.30;1.20;;;22.50;51.60;;;;;;220277;1267;25635;-51
2022/07/17 04:32:14;;;;;;;3.10;1.50;;;22.50;51.70;;;;;;220318;1270;22595;-50
2022/07/17 04:37:18;;;;;;;1.90;1.20;;;22.60;51.80;;;;;;220130;1268;22587;-52
2022/07/17 04:42:22;;;;;;;3.60;1.50;;;22.50;51.70;;;;;;220443;1267;22544;-48
2022/07/17 04:47:26;;;;;;;3.40;1.30;;;22.50;51.70;;;;;;220493;1267;22523;-50
2022/07/17 04:52:30;;;;;;;2.00;1.20;;;22.50;51.80;;;;;;220451;1268;22733;-49
2022/07/17 04:57:33;;;;;;;3.90;1.10;;;22.50;51.70;;;;;;220169;1270;25315;-50
2022/07/17 05:02:38;;;;;;;1.80;1.10;;;22.50;51.50;;;;;;220648;1270;25414;-52
2022/07/17 05:07:41;;;;;;;1.60;1.10;;;22.50;52.00;;;;;;220549;1267;25298;-49
2022/07/17 05:12:45;;;;;;;2.00;1.20;;;22.50;52.00;;;;;;220604;1268;22741;-55
2022/07/17 05:17:49;;;;;;;2.20;1.30;;;22.50;51.70;;;;;;220622;1268;25300;-50
2022/07/17 05:22:53;;;;;;;2.90;1.30;;;22.50;51.70;;;;;;220868;1267;25222;-49
2022/07/17 05:28:01;;;;;;;2.50;1.50;;;22.50;51.70;;;;;;220609;1267;22534;-51
2022/07/17 05:33:05;;;;;;;2.00;1.10;;;22.50;51.70;;;;;;220143;1270;22561;-50
2022/07/17 05:38:10;;;;;;;2.20;1.40;;;22.50;51.70;;;;;;220423;1270;24217;-48
2022/07/17 05:43:14;;;;;;;2.00;1.10;;;22.50;51.80;;;;;;220798;1268;26496;-52
2022/07/17 05:48:17;;;;;;;3.00;1.00;;;22.50;51.30;;;;;;220751;1268;22551;-50
2022/07/17 05:53:21;;;;;;;2.50;1.40;;;22.50;51.70;;;;;;220548;1270;25225;-47
2022/07/17 05:58:28;;;;;;;2.30;1.30;;;22.50;51.70;;;;;;220632;1267;25337;-48
2022/07/17 06:03:31;;;;;;;2.10;1.30;;;22.50;51.80;;;;;;220688;1267;22753;-46
2022/07/17 06:08:35;;;;;;;3.60;1.50;;;22.50;51.80;;;;;;220586;1268;22683;-50
2022/07/17 06:13:39;;;;;;;2.50;1.20;;;22.50;51.80;;;;;;220759;1267;22745;-49
2022/07/17 06:18:42;;;;;;;2.50;1.10;;;22.50;52.10;;;;;;220624;1268;22542;-48
2022/07/17 06:23:48;;;;;;;2.30;1.40;;;22.50;51.80;;;;;;220633;1267;22526;-48
2022/07/17 06:28:51;;;;;;;2.50;1.10;;;22.60;51.90;;;;;;220554;1270;26616;-50
2022/07/17 06:33:55;;;;;;;2.70;1.30;;;22.60;52.10;;;;;;220748;1270;22605;-54
2022/07/17 06:38:59;;;;;;;2.50;1.20;;;22.60;51.80;;;;;;220798;1267;22676;-48
2022/07/17 06:44:03;;;;;;;3.30;1.40;;;22.60;51.80;;;;;;220445;1270;25365;-54
2022/07/17 06:49:07;;;;;;;3.30;1.50;;;22.70;52.10;;;;;;220272;1271;22515;-52
2022/07/17 06:54:11;;;;;;;2.40;1.20;;;22.70;51.80;;;;;;220979;1267;22525;-53
2022/07/17 06:59:15;;;;;;;2.40;1.10;;;22.60;51.70;;;;;;220881;1270;25383;-48
2022/07/17 07:04:25;;;;;;;2.60;1.40;;;22.70;51.40;;;;;;220516;1268;22594;-50
2022/07/17 07:09:32;;;;;;;1.90;1.20;;;22.60;51.70;;;;;;220354;1267;24146;-51
2022/07/17 07:14:36;;;;;;;2.50;1.30;;;22.70;51.70;;;;;;220559;1269;22750;-51
2022/07/17 07:19:41;;;;;;;2.50;1.50;;;22.70;52.00;;;;;;220374;1268;22547;-49
2022/07/17 07:24:44;;;;;;;2.70;1.20;;;22.70;51.60;;;;;;220809;1267;22556;-53
2022/07/17 07:29:50;;;;;;;2.00;1.00;;;22.70;51.60;;;;;;220432;1270;24267;-55
2022/07/17 07:34:54;;;;;;;3.10;1.30;;;22.70;51.50;;;;;;220687;1268;22529;-52
2022/07/17 07:39:59;;;;;;;2.60;1.40;;;22.80;52.20;;;;;;220769;1268;24215;-51
2022/07/17 07:45:11;;;;;;;2.50;1.20;;;22.80;51.60;;;;;;220466;1268;25298;-48
2022/07/17 07:50:28;;;;;;;2.40;1.10;;;22.80;51.80;;;;;;220220;1271;22552;-49
2022/07/17 07:55:42;;;;;;;2.30;1.20;;;22.80;51.50;;;;;;220322;1267;26122;-50
2022/07/17 08:01:07;;;;;;;4.90;2.10;;;22.80;51.50;;;;;;220557;1270;22682;-53
2022/07/17 08:06:17;;;;;;;2.70;1.10;;;22.80;51.50;;;;;;220544;1267;22539;-52
2022/07/17 08:11:24;;;;;;;2.50;1.00;;;22.80;51.50;;;;;;220773;1267;25231;-50
2022/07/17 08:16:29;;;;;;;2.10;1.10;;;22.90;51.40;;;;;;220480;1269;22729;-47
2022/07/17 08:21:34;;;;;;;3.40;1.70;;;22.90;51.40;;;;;;220844;1268;24290;-51
2022/07/17 08:26:38;;;;;;;2.50;1.30;;;22.80;51.20;;;;;;220578;1270;22529;-52
2022/07/17 08:31:44;;;;;;;2.40;1.30;;;22.90;51.20;;;;;;220743;1270;24216;-52
2022/07/17 08:36:58;;;;;;;2.70;1.00;;;22.90;51.10;;;;;;220577;1268;24261;-52
2022/07/17 08:42:03;;;;;;;2.20;1.40;;;22.90;51.20;;;;;;220381;1270;23908;-48
2022/07/17 08:47:09;;;;;;;3.90;1.50;;;22.90;51.40;;;;;;220543;1268;22857;-49
2022/07/17 08:52:14;;;;;;;3.00;1.30;;;23.00;51.40;;;;;;220727;1266;24224;-49
2022/07/17 08:57:20;;;;;;;2.80;1.40;;;23.00;51.20;;;;;;220778;1270;22577;-49
2022/07/17 09:03:06;;;;;;;2.30;1.10;;;23.00;51.20;;;;;;220812;1268;24370;-49
2022/07/17 09:08:24;;;;;;;1.90;1.20;;;23.00;51.20;;;;;;220915;1270;22520;-51
2022/07/17 09:13:48;;;;;;;2.70;1.20;;;23.00;51.20;;;;;;220772;1268;27015;-55
2022/07/17 09:19:36;;;;;;;2.10;1.10;;;23.00;51.10;;;;;;220674;1268;22528;-53
2022/07/17 09:24:54;;;;;;;2.40;1.30;;;23.00;51.00;;;;;;220489;1268;22556;-51
2022/07/17 09:30:17;;;;;;;3.10;1.50;;;23.10;51.00;;;;;;220371;1268;24212;-52
2022/07/17 09:35:34;;;;;;;5.40;1.60;;;23.10;51.00;;;;;;220796;1268;22543;-49
2022/07/17 09:41:20;;;;;;;2.20;1.40;;;23.10;51.00;;;;;;220419;1269;24328;-51
2022/07/17 09:47:14;;;;;;;1.80;1.00;;;23.10;51.00;;;;;;220367;1268;25474;-53
2022/07/17 09:52:46;;;;;;;2.20;1.30;;;23.10;50.90;;;;;;219744;1275;22608;-51
2022/07/17 09:57:58;;;;;;;2.80;1.50;;;23.20;50.90;;;;;;219624;1274;25560;-61
2022/07/17 10:03:53;;;;;;;2.40;1.40;;;23.20;51.20;;;;;;219764;1274;24361;-60
2022/07/17 10:09:30;;;;;;;2.60;1.50;;;23.20;50.80;;;;;;219893;1274;24299;-60
2022/07/17 10:14:47;;;;;;;2.40;1.30;;;23.20;50.70;;;;;;219964;1271;25371;-60
2022/07/17 10:20:33;;;;;;;2.50;1.20;;;23.30;50.70;;;;;;220617;1268;22680;-62
2022/07/17 10:26:05;;;;;;;3.90;1.20;;;23.30;50.60;;;;;;220141;1271;22531;-60
2022/07/17 10:31:33;;;;;;;1.80;1.00;;;23.30;50.50;;;;;;220666;1268;25534;-58
2022/07/17 10:37:17;;;;;;;2.20;1.10;;;23.30;50.50;;;;;;220439;1268;25549;-60
2022/07/17 10:43:20;;;;;;;3.50;1.30;;;23.40;50.80;;;;;;220418;1268;23964;-59
2022/07/17 10:48:43;;;;;;;3.20;1.10;;;23.40;50.80;;;;;;220314;1268;25710;-60
2022/07/17 10:54:38;;;;;;;2.00;1.20;;;23.40;50.50;;;;;;220307;1268;24316;-59
2022/07/17 10:59:55;;;;;;;2.40;1.30;;;23.40;50.40;;;;;;220538;1268;22775;-60
2022/07/17 11:05:31;;;;;;;2.40;1.00;;;23.40;50.70;;;;;;220525;1266;22755;-61
2022/07/17 11:11:07;;;;;;;3.50;1.20;;;23.50;50.30;;;;;;220423;1267;25753;-61
2022/07/17 11:17:04;;;;;;;3.40;1.30;;;23.50;50.10;;;;;;220662;1267;26719;-60
2022/07/17 11:22:31;;;;;;;1.90;1.10;;;23.50;50.00;;;;;;220776;1267;22554;-59
2022/07/17 11:28:02;;;;;;;3.80;1.10;;;23.50;49.90;;;;;;220840;1267;24215;-59
2022/07/17 11:33:57;;;;;;;1.60;1.00;;;23.50;49.80;;;;;;220284;1267;24409;-60
2022/07/17 11:39:06;;;;;;;2.10;1.10;;;23.50;49.80;;;;;;220064;1268;23093;-61
2022/07/17 11:44:15;;;;;;;1.80;1.00;;;23.60;49.80;;;;;;220184;1267;26610;-60
2022/07/17 11:49:35;;;;;;;3.10;1.10;;;23.60;49.80;;;;;;220321;1267;22544;-59
2022/07/17 11:54:48;;;;;;;2.30;1.20;;;23.60;49.70;;;;;;220361;1268;22607;-59
2022/07/17 12:00:04;;;;;;;2.80;1.10;;;23.60;49.70;;;;;;220179;1267;23023;-60
2022/07/17 12:05:12;;;;;;;2.20;1.00;;;23.60;49.60;;;;;;220489;1267;25458;-60
2022/07/17 12:10:16;;;;;;;2.20;1.30;;;23.70;49.60;;;;;;220826;1267;23960;-62
2022/07/17 12:15:21;;;;;;;2.20;1.10;;;23.60;49.80;;;;;;220274;1268;22550;-59
2022/07/17 12:20:44;;;;;;;2.80;1.40;;;23.60;49.50;;;;;;220343;1267;22744;-61
2022/07/17 12:25:48;;;;;;;;;;;23.70;49.40;;;;;;220709;1267;22547;-59
2022/07/17 12:30:51;;;;;;;2.10;1.30;;;23.70;49.40;;;;;;220481;1267;22579;-59
2022/07/17 12:36:07;;;;;;;1.90;0.90;;;23.70;49.40;;;;;;220637;1268;22637;-61
2022/07/17 12:41:18;;;;;;;2.00;1.20;;;23.70;49.40;;;;;;220468;1267;22565;-59
2022/07/17 12:46:23;;;;;;;2.50;1.20;;;23.80;49.40;;;;;;220315;1267;22572;-61
2022/07/17 12:51:31;;;;;;;1.90;1.00;;;23.70;49.30;;;;;;220749;1267;22697;-61
2022/07/17 12:56:55;;;;;;;2.40;1.30;;;23.80;49.40;;;;;;220490;1267;22697;-60
2022/07/17 13:01:59;;;;;;;1.90;1.20;;;23.80;49.30;;;;;;220359;1266;22550;-59
2022/07/17 13:07:04;;;;;;;2.40;1.20;;;23.80;49.30;;;;;;220432;1268;25283;-60
2022/07/17 13:12:09;;;;;;;1.60;0.90;;;23.80;49.20;;;;;;220697;1267;22528;-59
2022/07/17 13:17:13;;;;;;;2.60;1.20;;;23.80;49.20;;;;;;220266;1267;24293;-60
2022/07/17 13:22:17;;;;;;;2.50;1.30;;;23.80;49.20;;;;;;220591;1268;22534;-59
2022/07/17 13:27:21;;;;;;;2.70;1.20;;;23.80;49.10;;;;;;220491;1269;22549;-58
2022/07/17 13:32:24;;;;;;;1.90;1.00;;;23.80;49.10;;;;;;220391;1267;673714;-63
2022/07/17 13:37:28;;;;;;;2.50;1.20;;;23.90;49.20;;;;;;220607;1267;22548;-60
2022/07/17 13:42:33;;;;;;;2.10;1.20;;;23.90;49.10;;;;;;220659;1267;22615;-61
2022/07/17 13:47:40;;;;;;;2.60;1.30;;;23.90;49.50;;;;;;220655;1267;22550;-62
2022/07/17 13:52:46;;;;;;;1.40;1.00;;;23.80;49.10;;;;;;220583;1268;22577;-61
2022/07/17 13:57:50;;;;;;;3.00;1.30;;;23.90;49.20;;;;;;220346;1267;22720;-60
2022/07/17 14:02:55;;;;;;;2.10;1.10;;;23.90;49.00;;;;;;220480;1267;22551;-63
2022/07/17 14:07:59;;;;;;;3.30;1.20;;;23.90;49.00;;;;;;220525;1268;24302;-60
2022/07/17 14:13:05;;;;;;;2.00;1.00;;;23.90;49.00;;;;;;220451;1268;22550;-62
2022/07/17 14:18:11;;;;;;;2.10;1.10;;;23.90;49.00;;;;;;220628;1267;22594;-60
2022/07/17 14:23:17;;;;;;;2.30;1.20;;;23.80;49.00;;;;;;220475;1269;22561;-60
2022/07/17 14:28:21;;;;;;;2.60;1.30;;;23.90;49.10;;;;;;220674;1268;22819;-58
2022/07/17 14:33:28;;;;;;;2.30;1.10;;;23.90;49.20;;;;;;220301;1267;22567;-57
2022/07/17 14:38:32;;;;;;;2.80;1.20;;;23.90;48.90;;;;;;220119;1268;25368;-59
2022/07/17 14:43:38;;;;;;;2.40;1.40;;;23.80;48.70;;;;;;220010;1268;25494;-59
2022/07/17 14:48:48;;;;;;;;;;;23.90;48.70;;;;;;220578;1268;24315;-61
2022/07/17 14:53:56;;;;;;;2.50;1.30;;;23.90;48.50;;;;;;220322;1267;22716;-60
2022/07/17 14:59:04;;;;;;;3.10;1.30;;;23.90;48.40;;;;;;220500;1267;22580;-59
2022/07/17 15:04:09;;;;;;;2.30;1.00;;;23.80;48.30;;;;;;220491;1267;25512;-58
2022/07/17 15:09:13;;;;;;;2.20;1.20;;;23.90;48.40;;;;;;220430;1267;22531;-60
2022/07/17 15:14:18;;;;;;;3.50;1.40;;;23.90;48.50;;;;;;220813;1267;22620;-60
2022/07/17 15:19:22;;;;;;;2.40;1.00;;;23.90;48.40;;;;;;220424;1268;22550;-58
2022/07/17 15:24:26;;;;;;;2.60;1.10;;;23.90;48.50;;;;;;220504;1267;24393;-60
2022/07/17 15:29:32;;;;;;;2.90;1.10;;;23.90;48.50;;;;;;220546;1267;22562;-61
2022/07/17 15:34:39;;;;;;;3.00;1.30;;;23.90;48.60;;;;;;220565;1267;22622;-62
2022/07/17 15:39:43;;;;;;;2.70;1.40;;;23.90;48.60;;;;;;220434;1268;25306;-60
2022/07/17 15:44:49;;;;;;;2.20;1.20;;;23.90;48.50;;;;;;220375;1268;24259;-59
2022/07/17 15:49:59;;;;;;;;;;;23.90;48.50;;;;;;220775;1267;22526;-60
2022/07/17 15:55:04;;;;;;;1.60;1.00;;;23.90;49.00;;;;;;220529;1267;24100;-59
2022/07/17 16:00:09;;;;;;;1.70;1.10;;;23.90;48.60;;;;;;220571;1267;26726;-60
2022/07/17 16:05:17;;;;;;;2.80;1.00;;;23.90;48.60;;;;;;220504;1268;23994;-60
2022/07/17 16:10:22;;;;;;;2.70;1.20;;;23.90;48.90;;;;;;221008;1267;23901;-60
2022/07/17 16:15:26;;;;;;;2.00;1.10;;;23.90;48.80;;;;;;220667;1267;23943;-58
2022/07/17 16:20:30;;;;;;;2.40;1.10;;;23.90;48.90;;;;;;220294;1267;23300;-60
2022/07/17 16:25:34;;;;;;;1.90;1.10;;;23.90;48.60;;;;;;220669;1267;25395;-60
2022/07/17 16:30:39;;;;;;;2.90;1.30;;;23.90;49.10;;;;;;220750;1267;22539;-61
2022/07/17 16:35:46;;;;;;;2.70;1.20;;;23.90;48.80;;;;;;220439;1267;26187;-59
2022/07/17 16:40:51;;;;;;;2.20;1.10;;;23.90;48.70;;;;;;220880;1267;24273;-60
2022/07/17 16:45:55;;;;;;;2.80;1.10;;;23.90;48.70;;;;;;220486;1267;26147;-61
2022/07/17 16:51:01;;;;;;;2.90;1.40;;;23.90;48.90;;;;;;220367;1267;24380;-61
2022/07/17 16:56:05;;;;;;;1.50;1.10;;;23.80;48.40;;;;;;220619;1268;25549;-59
2022/07/17 17:01:09;;;;;;;2.10;1.10;;;23.90;48.00;;;;;;220433;1268;26743;-60
2022/07/17 17:06:13;;;;;;;2.50;1.20;;;23.90;48.90;;;;;;220346;1268;26513;-62
2022/07/17 17:11:19;;;;;;;2.40;1.30;;;23.90;48.80;;;;;;220193;1268;23028;-60
2022/07/17 17:16:23;;;;;;;1.60;1.10;;;23.80;48.40;;;;;;220811;1267;24281;-62
2022/07/17 17:21:29;;;;;;;1.90;1.30;;;23.90;48.40;;;;;;220792;1267;24416;-59
2022/07/17 17:26:35;;;;;;;2.40;1.30;;;23.80;48.30;;;;;;220714;1267;22557;-61
2022/07/17 17:31:41;;;;;;;2.60;1.30;;;23.90;48.40;;;;;;220672;1267;24265;-61
2022/07/17 17:36:55;;;;;;;1.60;1.00;;;23.80;48.90;;;;;;220761;1267;24286;-60
2022/07/17 17:42:03;;;;;;;3.20;1.20;;;23.90;48.90;;;;;;220655;1268;26679;-62
2022/07/17 17:47:16;;;;;;;2.20;1.10;;;23.90;48.60;;;;;;220432;1267;25314;-60
2022/07/17 17:52:26;;;;;;;2.60;1.20;;;23.90;48.50;;;;;;220456;1267;24307;-60
2022/07/17 17:57:32;;;;;;;1.80;1.10;;;23.90;48.50;;;;;;220764;1267;22613;-60
2022/07/17 18:02:36;;;;;;;3.00;1.20;;;23.90;48.60;;;;;;220308;1270;22559;-61
2022/07/17 18:07:40;;;;;;;2.70;1.10;;;23.80;48.60;;;;;;220435;1267;24079;-60
2022/07/17 18:12:51;;;;;;;4.60;1.30;;;23.80;49.00;;;;;;220422;1267;25421;-59
2022/07/17 18:17:57;;;;;;;1.20;0.90;;;23.80;49.10;;;;;;220410;1268;26497;-60
2022/07/17 18:23:03;;;;;;;2.20;1.20;;;23.80;49.30;;;;;;220695;1267;22539;-61
2022/07/17 18:28:09;;;;;;;2.60;1.30;;;23.80;49.30;;;;;;220916;1267;22521;-60
2022/07/17 18:33:13;;;;;;;2.20;1.10;;;23.80;49.00;;;;;;220684;1267;25466;-61
2022/07/17 18:38:16;;;;;;;1.80;1.10;;;23.80;49.00;;;;;;220662;1267;24304;-60
2022/07/17 18:43:22;;;;;;;2.10;1.10;;;23.80;49.40;;;;;;220741;1268;25353;-60
2022/07/17 18:48:34;;;;;;;2.10;1.10;;;23.80;49.40;;;;;;220809;1267;22550;-60
2022/07/17 18:53:45;;;;;;;1.80;1.00;;;23.80;49.10;;;;;;220598;1268;24422;-61
2022/07/17 18:58:49;;;;;;;2.00;1.20;;;23.80;49.10;;;;;;220504;1268;23767;-61
2022/07/17 19:03:56;;;;;;;2.10;1.10;;;23.70;49.10;;;;;;220234;1268;23942;-60
2022/07/17 19:09:02;;;;;;;3.00;1.30;;;23.80;49.50;;;;;;220458;1269;25304;-60
2022/07/17 19:14:09;;;;;;;1.50;0.90;;;23.70;49.50;;;;;;220912;1267;22570;-60
2022/07/17 19:19:14;;;;;;;2.30;1.10;;;23.70;49.20;;;;;;220732;1267;24250;-61
2022/07/17 19:24:23;;;;;;;1.90;1.30;;;23.70;49.20;;;;;;220676;1267;25552;-60
2022/07/17 19:29:30;;;;;;;2.90;1.40;;;23.70;49.90;;;;;;220766;1267;22551;-61
2022/07/17 19:34:42;;;;;;;2.70;1.20;;;23.70;49.30;;;;;;220689;1268;25562;-61
2022/07/17 19:39:46;;;;;;;2.10;1.20;;;23.70;49.70;;;;;;220639;1270;24272;-60
2022/07/17 19:44:50;;;;;;;2.20;1.20;;;23.70;49.40;;;;;;220536;1268;24319;-61
2022/07/17 19:49:54;;;;;;;1.90;1.00;;;23.70;49.40;;;;;;220525;1267;22528;-61
2022/07/17 19:54:58;;;;;;;2.40;1.30;;;23.70;49.30;;;;;;220797;1267;22577;-60
2022/07/17 20:00:05;;;;;;;1.80;1.10;;;23.70;49.30;;;;;;220810;1267;25292;-58
2022/07/17 20:05:09;;;;;;;3.00;1.30;;;23.60;49.40;;;;;;220759;1267;25418;-59
2022/07/17 20:10:13;;;;;;;2.70;1.30;;;23.60;49.40;;;;;;220944;1267;22551;-60
2022/07/17 20:15:16;;;;;;;2.10;1.20;;;23.60;49.40;;;;;;220690;1268;22609;-59
2022/07/17 20:20:20;;;;;;;2.40;1.10;;;23.60;49.50;;;;;;220650;1270;23187;-60
2022/07/17 20:25:24;;;;;;;2.20;1.20;;;23.60;49.50;;;;;;220824;1267;22570;-61
2022/07/17 20:30:31;;;;;;;2.00;1.20;;;23.60;49.50;;;;;;221011;1267;23950;-61
2022/07/17 20:35:39;;;;;;;2.30;1.30;;;23.60;49.60;;;;;;220466;1267;22640;-60
2022/07/17 20:40:43;;;;;;;3.00;1.30;;;23.60;49.70;;;;;;220202;1267;25483;-60
2022/07/17 20:45:51;;;;;;;2.60;1.30;;;23.60;49.40;;;;;;220440;1267;22571;-60
2022/07/17 20:50:56;;;;;;;2.80;1.50;;;23.60;49.60;;;;;;220497;1267;22518;-61
2022/07/17 20:56:01;;;;;;;3.40;1.70;;;23.60;49.70;;;;;;220470;1267;24331;-61
2022/07/17 21:01:08;;;;;;;3.10;1.50;;;23.60;50.00;;;;;;220531;1267;22989;-60
2022/07/17 21:06:14;;;;;;;2.50;1.30;;;23.50;49.70;;;;;;220525;1267;22548;-63
2022/07/17 21:11:18;;;;;;;2.40;1.30;;;23.50;49.70;;;;;;220727;1268;22615;-60
2022/07/17 21:16:21;;;;;;;4.70;1.90;;;23.50;49.80;;;;;;220976;1267;24292;-62
2022/07/17 21:21:26;;;;;;;3.90;1.90;;;23.50;49.90;;;;;;220611;1268;25311;-62
2022/07/17 21:26:35;;;;;;;3.50;1.90;;;23.50;49.50;;;;;;220628;1267;24303;-60
2022/07/17 21:31:41;;;;;;;2.60;1.50;;;23.50;49.90;;;;;;220596;1267;22528;-62
2022/07/17 21:36:47;;;;;;;3.20;1.80;;;23.50;50.00;;;;;;220548;1267;22532;-59
2022/07/17 21:41:51;;;;;;;3.50;1.60;;;23.40;50.00;;;;;;220384;1270;24048;-61
2022/07/17 21:46:58;;;;;;;2.90;1.50;;;23.40;50.40;;;;;;220668;1267;22532;-58
2022/07/17 21:52:02;;;;;;;2.40;1.50;;;23.40;50.10;;;;;;220269;1267;22624;-62
2022/07/17 21:57:09;;;;;;;2.90;1.70;;;23.40;50.10;;;;;;221049;1267;22525;-60
2022/07/17 22:02:14;;;;;;;3.20;1.70;;;23.30;50.10;;;;;;220713;1270;23942;-62
2022/07/17 22:07:21;;;;;;;2.30;1.20;;;23.30;50.50;;;;;;220865;1267;24269;-61
2022/07/17 22:12:25;;;;;;;2.80;1.50;;;23.40;50.30;;;;;;220825;1267;25226;-62
2022/07/17 22:17:29;;;;;;;2.40;1.30;;;23.30;50.20;;;;;;220804;1267;25314;-62
2022/07/17 22:22:33;;;;;;;3.30;1.50;;;23.30;50.30;;;;;;220913;1267;22534;-61
2022/07/17 22:27:37;;;;;;;2.70;1.30;;;23.30;50.40;;;;;;220471;1270;22540;-61
2022/07/17 22:32:45;;;;;;;2.90;1.50;;;23.30;50.40;;;;;;220591;1269;24356;-60
2022/07/17 22:37:48;;;;;;;2.60;1.30;;;23.30;50.80;;;;;;220601;1270;25350;-61
2022/07/17 22:42:52;;;;;;;2.60;1.40;;;23.30;50.70;;;;;;220231;1270;22707;-62
2022/07/17 22:47:55;;;;;;;3.10;1.60;;;23.30;50.50;;;;;;220509;1268;24383;-61
2022/07/17 22:53:00;;;;;;;2.40;1.40;;;23.30;50.80;;;;;;220133;1270;22575;-60
2022/07/17 22:58:04;;;;;;;2.70;1.60;;;23.30;50.50;;;;;;220642;1267;22710;-63
2022/07/17 23:03:07;;;;;;;2.90;1.40;;;23.30;50.50;;;;;;220823;1268;22550;-63
2022/07/17 23:08:12;;;;;;;3.10;1.70;;;23.20;50.50;;;;;;220629;1266;22588;-63
2022/07/17 23:13:16;;;;;;;2.60;1.20;;;23.20;50.50;;;;;;220870;1267;24278;-61
2022/07/17 23:18:19;;;;;;;3.90;1.60;;;23.20;50.60;;;;;;220726;1267;25564;-60
2022/07/17 23:23:23;;;;;;;2.30;1.50;;;23.20;50.60;;;;;;220677;1267;22529;-61
2022/07/17 23:28:27;;;;;;;2.90;1.70;;;23.20;50.60;;;;;;220564;1267;22942;-61
2022/07/17 23:33:30;;;;;;;3.40;1.60;;;23.20;50.90;;;;;;220591;1267;24251;-59
2022/07/17 23:38:34;;;;;;;4.20;1.60;;;23.20;50.60;;;;;;220719;1268;25174;-61
2022/07/17 23:43:37;;;;;;;2.40;1.60;;;23.20;50.60;;;;;;220786;1267;22843;-61
2022/07/17 23:48:41;;;;;;;2.90;1.60;;;23.20;50.60;;;;;;220629;1268;22869;-59
2022/07/17 23:53:44;;;;;;;2.80;1.50;;;23.20;50.70;;;;;;220289;1269;24212;-59
2022/07/17 23:58:51;;;;;;;3.90;1.60;;;23.20;50.70;;;;;;220596;1267;24305;-60
